sensor_id;sensor_type;location;lat;lon;timestamp;temperature;humidity
73133;DHT22;61320;52.008;4.530;2022-08-25T00:01:39;24.26;78.64
73133;DHT22;61320;52.008;4.530;2022-08-25T00:04:08;24.24;78.62
73133;DHT22;61320;52.008;4.530;2022-08-25T00:06:36;24.22;78.81
73133;DHT22;61320;52.008;4.530;2022-08-25T00:09:03;24.21;78.60
73133;DHT22;61320;52.008;4.530;2022-08-25T00:11:32;24.16;78.59
73133;DHT22;61320;52.008;4.530;2022-08-25T00:14:01;24.11;78.73
73133;DHT22;61320;52.008;4.530;2022-08-25T00:16:28;24.09;79.00
73133;DHT22;61320;52.008;4.530;2022-08-25T00:18:58;24.06;79.16
73133;DHT22;61320;52.008;4.530;2022-08-25T00:21:28;24.06;79.10
73133;DHT22;61320;52.008;4.530;2022-08-25T00:23:55;24.05;79.04
73133;DHT22;61320;52.008;4.530;2022-08-25T00:26:21;24.04;79.29
73133;DHT22;61320;52.008;4.530;2022-08-25T00:28:46;24.04;79.35
73133;DHT22;61320;52.008;4.530;2022-08-25T00:31:15;24.02;79.36
73133;DHT22;61320;52.008;4.530;2022-08-25T00:33:42;24.02;79.26
73133;DHT22;61320;52.008;4.530;2022-08-25T00:36:08;24.01;78.99
73133;DHT22;61320;52.008;4.530;2022-08-25T00:38:41;23.97;79.14
73133;DHT22;61320;52.008;4.530;2022-08-25T00:41:08;23.95;79.10
73133;DHT22;61320;52.008;4.530;2022-08-25T00:43:48;23.94;79.07
73133;DHT22;61320;52.008;4.530;2022-08-25T00:46:19;23.93;79.44
73133;DHT22;61320;52.008;4.530;2022-08-25T00:48:51;23.94;79.39
73133;DHT22;61320;52.008;4.530;2022-08-25T00:51:27;23.94;79.36
73133;DHT22;61320;52.008;4.530;2022-08-25T00:53:55;23.94;79.38
73133;DHT22;61320;52.008;4.530;2022-08-25T00:56:21;23.95;79.38
73133;DHT22;61320;52.008;4.530;2022-08-25T00:58:47;23.94;79.17
73133;DHT22;61320;52.008;4.530;2022-08-25T01:01:12;23.91;79.15
73133;DHT22;61320;52.008;4.530;2022-08-25T01:03:38;23.91;79.59
73133;DHT22;61320;52.008;4.530;2022-08-25T01:06:04;23.93;79.50
73133;DHT22;61320;52.008;4.530;2022-08-25T01:08:32;23.94;79.45
73133;DHT22;61320;52.008;4.530;2022-08-25T01:11:02;23.94;79.43
73133;DHT22;61320;52.008;4.530;2022-08-25T01:13:44;23.98;79.23
73133;DHT22;61320;52.008;4.530;2022-08-25T01:16:12;23.95;79.31
73133;DHT22;61320;52.008;4.530;2022-08-25T01:18:54;23.97;79.22
73133;DHT22;61320;52.008;4.530;2022-08-25T01:21:23;23.98;79.30
73133;DHT22;61320;52.008;4.530;2022-08-25T01:23:50;23.97;79.13
73133;DHT22;61320;52.008;4.530;2022-08-25T01:26:20;23.93;79.16
73133;DHT22;61320;52.008;4.530;2022-08-25T01:28:48;23.89;79.24
73133;DHT22;61320;52.008;4.530;2022-08-25T01:31:34;23.88;79.12
73133;DHT22;61320;52.008;4.530;2022-08-25T01:34:05;23.85;79.56
73133;DHT22;61320;52.008;4.530;2022-08-25T01:36:36;23.82;79.47
73133;DHT22;61320;52.008;4.530;2022-08-25T01:39:03;23.79;79.44
73133;DHT22;61320;52.008;4.530;2022-08-25T01:43:58;23.74;79.43
73133;DHT22;61320;52.008;4.530;2022-08-25T01:46:24;23.75;79.26
73133;DHT22;61320;52.008;4.530;2022-08-25T01:48:50;23.73;79.55
73133;DHT22;61320;52.008;4.530;2022-08-25T01:51:19;23.70;79.47
73133;DHT22;61320;52.008;4.530;2022-08-25T01:53:46;23.68;79.60
73133;DHT22;61320;52.008;4.530;2022-08-25T01:56:14;23.67;79.36
73133;DHT22;61320;52.008;4.530;2022-08-25T01:58:44;23.66;79.22
73133;DHT22;61320;52.008;4.530;2022-08-25T02:01:18;23.61;79.54
73133;DHT22;61320;52.008;4.530;2022-08-25T02:03:46;23.63;79.47
73133;DHT22;61320;52.008;4.530;2022-08-25T02:06:15;23.61;79.59
73133;DHT22;61320;52.008;4.530;2022-08-25T02:08:41;23.57;79.40
73133;DHT22;61320;52.008;4.530;2022-08-25T02:11:10;23.54;79.35
73133;DHT22;61320;52.008;4.530;2022-08-25T02:13:37;23.53;79.22
73133;DHT22;61320;52.008;4.530;2022-08-25T02:16:04;23.49;79.70
73133;DHT22;61320;52.008;4.530;2022-08-25T02:18:30;23.49;79.36
73133;DHT22;61320;52.008;4.530;2022-08-25T02:20:56;23.45;79.44
73133;DHT22;61320;52.008;4.530;2022-08-25T02:23:21;23.45;79.34
73133;DHT22;61320;52.008;4.530;2022-08-25T02:25:47;23.46;79.26
73133;DHT22;61320;52.008;4.530;2022-08-25T02:28:12;23.42;79.38
73133;DHT22;61320;52.008;4.530;2022-08-25T02:30:40;23.37;79.30
73133;DHT22;61320;52.008;4.530;2022-08-25T02:33:07;23.39;79.26
73133;DHT22;61320;52.008;4.530;2022-08-25T02:35:34;23.42;79.15
73133;DHT22;61320;52.008;4.530;2022-08-25T02:38:00;23.37;79.01
73133;DHT22;61320;52.008;4.530;2022-08-25T02:40:25;23.37;78.89
73133;DHT22;61320;52.008;4.530;2022-08-25T02:42:52;23.33;78.85
73133;DHT22;61320;52.008;4.530;2022-08-25T02:45:18;23.30;79.14
73133;DHT22;61320;52.008;4.530;2022-08-25T02:47:44;23.27;79.26
73133;DHT22;61320;52.008;4.530;2022-08-25T02:50:10;23.29;79.17
73133;DHT22;61320;52.008;4.530;2022-08-25T02:52:37;23.24;79.07
73133;DHT22;61320;52.008;4.530;2022-08-25T02:55:06;23.22;78.88
73133;DHT22;61320;52.008;4.530;2022-08-25T02:57:32;23.22;79.07
73133;DHT22;61320;52.008;4.530;2022-08-25T02:59:58;23.19;78.68
73133;DHT22;61320;52.008;4.530;2022-08-25T03:02:25;23.16;78.40
73133;DHT22;61320;52.008;4.530;2022-08-25T03:04:51;23.16;78.71
73133;DHT22;61320;52.008;4.530;2022-08-25T03:07:20;23.13;78.95
73133;DHT22;61320;52.008;4.530;2022-08-25T03:09:46;23.16;79.17
73133;DHT22;61320;52.008;4.530;2022-08-25T03:12:12;23.15;78.66
73133;DHT22;61320;52.008;4.530;2022-08-25T03:14:39;23.15;78.43
73133;DHT22;61320;52.008;4.530;2022-08-25T03:17:06;23.16;77.96
73133;DHT22;61320;52.008;4.530;2022-08-25T03:19:32;23.10;78.49
73133;DHT22;61320;52.008;4.530;2022-08-25T03:21:58;23.10;78.47
73133;DHT22;61320;52.008;4.530;2022-08-25T03:24:25;23.09;78.33
73133;DHT22;61320;52.008;4.530;2022-08-25T03:26:51;23.08;78.51
73133;DHT22;61320;52.008;4.530;2022-08-25T03:29:23;23.06;78.14
73133;DHT22;61320;52.008;4.530;2022-08-25T03:31:50;23.02;77.92
73133;DHT22;61320;52.008;4.530;2022-08-25T03:34:18;22.98;78.40
73133;DHT22;61320;52.008;4.530;2022-08-25T03:36:46;22.94;78.21
73133;DHT22;61320;52.008;4.530;2022-08-25T03:39:12;22.92;78.43
73133;DHT22;61320;52.008;4.530;2022-08-25T03:41:38;22.89;78.42
73133;DHT22;61320;52.008;4.530;2022-08-25T03:44:07;22.88;78.03
73133;DHT22;61320;52.008;4.530;2022-08-25T03:46:46;22.84;77.65
73133;DHT22;61320;52.008;4.530;2022-08-25T03:49:15;22.81;77.25
73133;DHT22;61320;52.008;4.530;2022-08-25T03:51:44;22.81;77.51
73133;DHT22;61320;52.008;4.530;2022-08-25T03:54:17;22.79;77.08
73133;DHT22;61320;52.008;4.530;2022-08-25T03:56:43;22.79;77.31
73133;DHT22;61320;52.008;4.530;2022-08-25T03:59:10;22.78;77.82
73133;DHT22;61320;52.008;4.530;2022-08-25T04:01:38;22.78;76.87
73133;DHT22;61320;52.008;4.530;2022-08-25T04:04:04;22.81;76.75
73133;DHT22;61320;52.008;4.530;2022-08-25T04:06:30;22.79;76.59
73133;DHT22;61320;52.008;4.530;2022-08-25T04:08:55;22.79;76.78
73133;DHT22;61320;52.008;4.530;2022-08-25T04:11:24;22.79;76.10
73133;DHT22;61320;52.008;4.530;2022-08-25T04:13:51;22.76;76.40
73133;DHT22;61320;52.008;4.530;2022-08-25T04:16:22;22.81;75.72
73133;DHT22;61320;52.008;4.530;2022-08-25T04:18:50;22.82;75.83
73133;DHT22;61320;52.008;4.530;2022-08-25T04:21:18;22.81;75.82
73133;DHT22;61320;52.008;4.530;2022-08-25T04:23:46;22.79;75.98
73133;DHT22;61320;52.008;4.530;2022-08-25T04:26:30;22.79;74.96
73133;DHT22;61320;52.008;4.530;2022-08-25T04:28:59;22.79;75.86
73133;DHT22;61320;52.008;4.530;2022-08-25T04:31:26;22.79;76.08
73133;DHT22;61320;52.008;4.530;2022-08-25T04:33:51;22.79;75.90
73133;DHT22;61320;52.008;4.530;2022-08-25T04:36:18;22.76;75.66
73133;DHT22;61320;52.008;4.530;2022-08-25T04:38:46;22.79;75.36
73133;DHT22;61320;52.008;4.530;2022-08-25T04:41:14;22.78;75.99
73133;DHT22;61320;52.008;4.530;2022-08-25T04:43:41;22.73;75.02
73133;DHT22;61320;52.008;4.530;2022-08-25T04:46:14;22.68;75.89
73133;DHT22;61320;52.008;4.530;2022-08-25T04:48:41;22.68;75.66
73133;DHT22;61320;52.008;4.530;2022-08-25T04:51:10;22.71;75.16
73133;DHT22;61320;52.008;4.530;2022-08-25T04:53:38;22.71;74.31
73133;DHT22;61320;52.008;4.530;2022-08-25T04:56:09;22.68;74.79
73133;DHT22;61320;52.008;4.530;2022-08-25T04:58:36;22.65;75.20
73133;DHT22;61320;52.008;4.530;2022-08-25T05:01:07;22.62;73.79
73133;DHT22;61320;52.008;4.530;2022-08-25T05:03:51;22.62;74.33
73133;DHT22;61320;52.008;4.530;2022-08-25T05:06:17;22.60;74.22
73133;DHT22;61320;52.008;4.530;2022-08-25T05:08:43;22.58;75.49
73133;DHT22;61320;52.008;4.530;2022-08-25T05:11:11;22.58;75.30
73133;DHT22;61320;52.008;4.530;2022-08-25T05:13:39;22.54;73.90
73133;DHT22;61320;52.008;4.530;2022-08-25T05:16:05;22.55;75.50
73133;DHT22;61320;52.008;4.530;2022-08-25T05:18:33;22.57;75.60
73133;DHT22;61320;52.008;4.530;2022-08-25T05:21:14;22.55;74.54
73133;DHT22;61320;52.008;4.530;2022-08-25T05:23:48;22.55;75.55
73133;DHT22;61320;52.008;4.530;2022-08-25T05:26:25;22.58;75.28
73133;DHT22;61320;52.008;4.530;2022-08-25T05:28:53;22.57;76.04
73133;DHT22;61320;52.008;4.530;2022-08-25T05:31:24;22.58;75.69
73133;DHT22;61320;52.008;4.530;2022-08-25T05:33:51;22.57;74.94
73133;DHT22;61320;52.008;4.530;2022-08-25T05:36:25;22.60;75.57
73133;DHT22;61320;52.008;4.530;2022-08-25T05:38:51;22.61;75.46
73133;DHT22;61320;52.008;4.530;2022-08-25T05:41:20;22.67;74.92
73133;DHT22;61320;52.008;4.530;2022-08-25T05:43:47;22.65;74.69
73133;DHT22;61320;52.008;4.530;2022-08-25T05:46:14;22.68;74.96
73133;DHT22;61320;52.008;4.530;2022-08-25T05:48:41;22.75;74.83
73133;DHT22;61320;52.008;4.530;2022-08-25T05:51:08;22.79;75.51
73133;DHT22;61320;52.008;4.530;2022-08-25T05:53:36;22.84;75.36
73133;DHT22;61320;52.008;4.530;2022-08-25T05:56:03;22.87;75.30
73133;DHT22;61320;52.008;4.530;2022-08-25T05:58:30;22.91;75.28
73133;DHT22;61320;52.008;4.530;2022-08-25T06:00:58;22.96;74.50
73133;DHT22;61320;52.008;4.530;2022-08-25T06:03:44;22.96;74.89
73133;DHT22;61320;52.008;4.530;2022-08-25T06:06:14;22.98;75.07
73133;DHT22;61320;52.008;4.530;2022-08-25T06:08:52;23.00;74.90
73133;DHT22;61320;52.008;4.530;2022-08-25T06:11:18;23.02;73.85
73133;DHT22;61320;52.008;4.530;2022-08-25T06:13:44;22.99;74.26
73133;DHT22;61320;52.008;4.530;2022-08-25T06:16:10;23.00;74.67
73133;DHT22;61320;52.008;4.530;2022-08-25T06:18:35;23.03;74.81
73133;DHT22;61320;52.008;4.530;2022-08-25T06:21:12;23.03;74.58
73133;DHT22;61320;52.008;4.530;2022-08-25T06:23:39;23.06;74.14
73133;DHT22;61320;52.008;4.530;2022-08-25T06:26:05;23.10;74.68
73133;DHT22;61320;52.008;4.530;2022-08-25T06:28:30;23.15;74.36
73133;DHT22;61320;52.008;4.530;2022-08-25T06:30:58;23.16;73.83
73133;DHT22;61320;52.008;4.530;2022-08-25T06:33:24;23.22;74.04
73133;DHT22;61320;52.008;4.530;2022-08-25T06:35:53;23.26;74.47
73133;DHT22;61320;52.008;4.530;2022-08-25T06:38:21;23.27;73.33
73133;DHT22;61320;52.008;4.530;2022-08-25T06:40:47;23.29;74.11
73133;DHT22;61320;52.008;4.530;2022-08-25T06:43:13;23.37;73.86
73133;DHT22;61320;52.008;4.530;2022-08-25T06:45:38;23.42;73.70
73133;DHT22;61320;52.008;4.530;2022-08-25T06:48:04;23.45;72.99
73133;DHT22;61320;52.008;4.530;2022-08-25T06:50:29;23.51;74.43
73133;DHT22;61320;52.008;4.530;2022-08-25T06:52:57;23.57;73.62
73133;DHT22;61320;52.008;4.530;2022-08-25T06:55:23;23.61;72.94
73133;DHT22;61320;52.008;4.530;2022-08-25T06:57:51;23.71;73.13
73133;DHT22;61320;52.008;4.530;2022-08-25T07:00:18;23.79;72.30
73133;DHT22;61320;52.008;4.530;2022-08-25T07:02:44;23.79;71.91
73133;DHT22;61320;52.008;4.530;2022-08-25T07:05:37;23.97;71.78
73133;DHT22;61320;52.008;4.530;2022-08-25T07:08:34;24.28;69.49
73133;DHT22;61320;52.008;4.530;2022-08-25T07:11:07;24.49;69.61
73133;DHT22;61320;52.008;4.530;2022-08-25T07:13:32;24.53;70.12
73133;DHT22;61320;52.008;4.530;2022-08-25T07:16:02;24.60;68.90
73133;DHT22;61320;52.008;4.530;2022-08-25T07:18:28;24.55;68.51
73133;DHT22;61320;52.008;4.530;2022-08-25T07:20:55;24.52;68.63
73133;DHT22;61320;52.008;4.530;2022-08-25T07:23:24;24.45;67.92
73133;DHT22;61320;52.008;4.530;2022-08-25T07:25:51;24.45;68.46
73133;DHT22;61320;52.008;4.530;2022-08-25T07:28:19;24.48;66.30
73133;DHT22;61320;52.008;4.530;2022-08-25T07:30:53;24.57;65.52
73133;DHT22;61320;52.008;4.530;2022-08-25T07:33:26;24.67;67.65
73133;DHT22;61320;52.008;4.530;2022-08-25T07:35:54;24.94;65.75
73133;DHT22;61320;52.008;4.530;2022-08-25T07:38:22;24.97;63.58
73133;DHT22;61320;52.008;4.530;2022-08-25T07:40:50;24.87;66.10
73133;DHT22;61320;52.008;4.530;2022-08-25T07:43:24;24.80;65.08
73133;DHT22;61320;52.008;4.530;2022-08-25T07:45:52;24.80;66.36
73133;DHT22;61320;52.008;4.530;2022-08-25T07:48:36;24.82;65.26
73133;DHT22;61320;52.008;4.530;2022-08-25T07:51:12;24.79;63.68
73133;DHT22;61320;52.008;4.530;2022-08-25T07:53:41;24.80;64.93
73133;DHT22;61320;52.008;4.530;2022-08-25T07:56:13;24.80;66.12
73133;DHT22;61320;52.008;4.530;2022-08-25T07:58:46;24.79;67.37
73133;DHT22;61320;52.008;4.530;2022-08-25T08:01:45;24.87;66.98
73133;DHT22;61320;52.008;4.530;2022-08-25T08:04:22;24.90;67.37
73133;DHT22;61320;52.008;4.530;2022-08-25T08:06:48;24.93;66.59
73133;DHT22;61320;52.008;4.530;2022-08-25T08:09:14;24.94;65.73
73133;DHT22;61320;52.008;4.530;2022-08-25T08:11:40;25.02;65.28
73133;DHT22;61320;52.008;4.530;2022-08-25T08:14:10;25.07;63.61
73133;DHT22;61320;52.008;4.530;2022-08-25T08:16:43;25.10;67.16
73133;DHT22;61320;52.008;4.530;2022-08-25T08:19:08;25.15;66.36
73133;DHT22;61320;52.008;4.530;2022-08-25T08:21:34;25.21;66.32
73133;DHT22;61320;52.008;4.530;2022-08-25T08:24:02;25.27;66.50
73133;DHT22;61320;52.008;4.530;2022-08-25T08:26:28;25.31;65.72
73133;DHT22;61320;52.008;4.530;2022-08-25T08:28:55;25.35;65.83
73133;DHT22;61320;52.008;4.530;2022-08-25T08:31:22;25.44;64.44
73133;DHT22;61320;52.008;4.530;2022-08-25T08:33:49;25.48;62.39
73133;DHT22;61320;52.008;4.530;2022-08-25T08:36:22;25.57;61.65
73133;DHT22;61320;52.008;4.530;2022-08-25T08:38:50;25.66;63.12
73133;DHT22;61320;52.008;4.530;2022-08-25T08:41:49;25.82;63.37
73133;DHT22;61320;52.008;4.530;2022-08-25T08:44:46;26.00;61.63
73133;DHT22;61320;52.008;4.530;2022-08-25T08:50:04;26.31;60.04
73133;DHT22;61320;52.008;4.530;2022-08-25T08:57:51;26.57;65.11
73133;DHT22;61320;52.008;4.530;2022-08-25T09:00:20;26.65;62.79
73133;DHT22;61320;52.008;4.530;2022-08-25T09:03:07;26.71;61.12
73133;DHT22;61320;52.008;4.530;2022-08-25T09:05:58;26.87;62.10
73133;DHT22;61320;52.008;4.530;2022-08-25T09:08:28;27.02;60.66
73133;DHT22;61320;52.008;4.530;2022-08-25T09:30:20;28.34;55.49
73133;DHT22;61320;52.008;4.530;2022-08-25T09:32:51;28.48;56.07
73133;DHT22;61320;52.008;4.530;2022-08-25T09:35:35;28.56;54.76
73133;DHT22;61320;52.008;4.530;2022-08-25T09:38:06;28.79;57.98
73133;DHT22;61320;52.008;4.530;2022-08-25T09:40:36;29.02;52.48
73133;DHT22;61320;52.008;4.530;2022-08-25T09:43:17;29.14;53.70
73133;DHT22;61320;52.008;4.530;2022-08-25T09:45:47;29.18;55.94
73133;DHT22;61320;52.008;4.530;2022-08-25T09:48:26;29.21;56.35
73133;DHT22;61320;52.008;4.530;2022-08-25T09:51:01;29.27;55.23
73133;DHT22;61320;52.008;4.530;2022-08-25T09:53:34;29.41;52.38
73133;DHT22;61320;52.008;4.530;2022-08-25T09:56:04;29.54;53.38
73133;DHT22;61320;52.008;4.530;2022-08-25T09:58:34;29.66;52.97
73133;DHT22;61320;52.008;4.530;2022-08-25T10:03:36;29.68;49.14
73133;DHT22;61320;52.008;4.530;2022-08-25T10:06:11;29.75;52.04
73133;DHT22;61320;52.008;4.530;2022-08-25T10:11:10;30.30;52.78
73133;DHT22;61320;52.008;4.530;2022-08-25T10:13:49;31.42;51.06
73133;DHT22;61320;52.008;4.530;2022-08-25T10:16:27;32.80;39.39
73133;DHT22;61320;52.008;4.530;2022-08-25T10:19:15;34.16;42.75
73133;DHT22;61320;52.008;4.530;2022-08-25T10:22:04;35.07;36.55
73133;DHT22;61320;52.008;4.530;2022-08-25T10:24:30;35.56;42.53
73133;DHT22;61320;52.008;4.530;2022-08-25T10:35:19;37.19;31.58
73133;DHT22;61320;52.008;4.530;2022-08-25T10:46:14;37.56;32.46
73133;DHT22;61320;52.008;4.530;2022-08-25T10:51:33;37.16;33.94
73133;DHT22;61320;52.008;4.530;2022-08-25T11:02:31;35.71;35.86
73133;DHT22;61320;52.008;4.530;2022-08-25T11:05:09;35.28;35.65
73133;DHT22;61320;52.008;4.530;2022-08-25T11:07:41;35.03;35.71
73133;DHT22;61320;52.008;4.530;2022-08-25T11:10:21;34.71;38.49
73133;DHT22;61320;52.008;4.530;2022-08-25T11:12:55;34.42;35.35
73133;DHT22;61320;52.008;4.530;2022-08-25T11:15:30;34.16;37.95
73133;DHT22;61320;52.008;4.530;2022-08-25T11:18:09;33.95;40.35
73133;DHT22;61320;52.008;4.530;2022-08-25T11:21:05;33.78;40.73
73133;DHT22;61320;52.008;4.530;2022-08-25T11:23:38;33.68;37.00
73133;DHT22;61320;52.008;4.530;2022-08-25T11:26:09;33.71;38.37
73133;DHT22;61320;52.008;4.530;2022-08-25T11:28:51;33.71;35.18
73133;DHT22;61320;52.008;4.530;2022-08-25T11:31:20;33.75;34.70
73133;DHT22;61320;52.008;4.530;2022-08-25T11:33:49;33.81;33.92
73133;DHT22;61320;52.008;4.530;2022-08-25T11:36:19;33.75;35.65
73133;DHT22;61320;52.008;4.530;2022-08-25T11:38:55;33.55;39.15
73133;DHT22;61320;52.008;4.530;2022-08-25T11:42:02;33.26;33.62
73133;DHT22;61320;52.008;4.530;2022-08-25T11:44:38;32.95;35.75
73133;DHT22;61320;52.008;4.530;2022-08-25T11:47:32;32.52;35.08
73133;DHT22;61320;52.008;4.530;2022-08-25T11:50:00;32.42;38.15
73133;DHT22;61320;52.008;4.530;2022-08-25T11:55:14;32.68;36.93
73133;DHT22;61320;52.008;4.530;2022-08-25T11:57:41;32.73;37.58
73133;DHT22;61320;52.008;4.530;2022-08-25T12:05:51;32.92;38.75
73133;DHT22;61320;52.008;4.530;2022-08-25T12:08:47;32.95;37.67
73133;DHT22;61320;52.008;4.530;2022-08-25T12:30:22;33.30;36.47
73133;DHT22;61320;52.008;4.530;2022-08-25T12:33:14;33.24;36.79
73133;DHT22;61320;52.008;4.530;2022-08-25T12:36:00;33.35;37.87
73133;DHT22;61320;52.008;4.530;2022-08-25T12:38:33;33.43;36.63
73133;DHT22;61320;52.008;4.530;2022-08-25T12:43:43;33.58;36.28
73133;DHT22;61320;52.008;4.530;2022-08-25T12:54:56;33.53;37.03
73133;DHT22;61320;52.008;4.530;2022-08-25T12:57:42;33.44;36.99
73133;DHT22;61320;52.008;4.530;2022-08-25T13:00:35;33.46;38.32
73133;DHT22;61320;52.008;4.530;2022-08-25T13:03:19;33.41;33.70
73133;DHT22;61320;52.008;4.530;2022-08-25T13:06:17;33.37;42.44
73133;DHT22;61320;52.008;4.530;2022-08-25T13:11:26;33.47;40.15
73133;DHT22;61320;52.008;4.530;2022-08-25T13:14:00;33.54;42.90
73133;DHT22;61320;52.008;4.530;2022-08-25T13:16:29;33.57;40.51
73133;DHT22;61320;52.008;4.530;2022-08-25T13:18:56;33.47;37.89
73133;DHT22;61320;52.008;4.530;2022-08-25T13:23:54;33.29;39.38
73133;DHT22;61320;52.008;4.530;2022-08-25T13:26:24;33.26;40.46
73133;DHT22;61320;52.008;4.530;2022-08-25T13:29:11;33.23;44.33
73133;DHT22;61320;52.008;4.530;2022-08-25T13:31:51;33.30;45.13
73133;DHT22;61320;52.008;4.530;2022-08-25T13:34:21;33.33;39.63
73133;DHT22;61320;52.008;4.530;2022-08-25T13:36:48;33.26;43.62
73133;DHT22;61320;52.008;4.530;2022-08-25T13:39:34;33.04;42.50
73133;DHT22;61320;52.008;4.530;2022-08-25T13:42:04;33.02;44.58
73133;DHT22;61320;52.008;4.530;2022-08-25T13:44:35;33.03;42.63
73133;DHT22;61320;52.008;4.530;2022-08-25T13:47:15;33.04;40.87
73133;DHT22;61320;52.008;4.530;2022-08-25T13:49:46;33.12;41.49
73133;DHT22;61320;52.008;4.530;2022-08-25T13:52:25;33.09;40.78
73133;DHT22;61320;52.008;4.530;2022-08-25T13:54:58;33.10;46.00
73133;DHT22;61320;52.008;4.530;2022-08-25T13:57:27;33.16;41.41
73133;DHT22;61320;52.008;4.530;2022-08-25T14:00:05;33.24;43.68
73133;DHT22;61320;52.008;4.530;2022-08-25T14:02:48;33.31;45.40
73133;DHT22;61320;52.008;4.530;2022-08-25T14:05:27;33.37;45.37
73133;DHT22;61320;52.008;4.530;2022-08-25T14:07:55;33.30;45.02
73133;DHT22;61320;52.008;4.530;2022-08-25T14:10:42;32.93;42.02
73133;DHT22;61320;52.008;4.530;2022-08-25T14:13:29;32.68;44.80
73133;DHT22;61320;52.008;4.530;2022-08-25T14:16:17;32.63;44.36
73133;DHT22;61320;52.008;4.530;2022-08-25T14:18:55;32.66;45.12
73133;DHT22;61320;52.008;4.530;2022-08-25T14:21:26;32.75;45.80
73133;DHT22;61320;52.008;4.530;2022-08-25T14:23:54;32.80;41.30
73133;DHT22;61320;52.008;4.530;2022-08-25T14:26:20;32.80;41.64
73133;DHT22;61320;52.008;4.530;2022-08-25T14:28:46;32.79;45.07
73133;DHT22;61320;52.008;4.530;2022-08-25T14:31:23;32.80;46.88
73133;DHT22;61320;52.008;4.530;2022-08-25T14:33:57;32.82;45.26
73133;DHT22;61320;52.008;4.530;2022-08-25T14:36:24;32.79;41.95
73133;DHT22;61320;52.008;4.530;2022-08-25T14:38:50;32.78;45.30
73133;DHT22;61320;52.008;4.530;2022-08-25T14:41:16;32.80;47.65
73133;DHT22;61320;52.008;4.530;2022-08-25T14:43:42;32.83;44.90
73133;DHT22;61320;52.008;4.530;2022-08-25T14:46:20;32.89;44.50
73133;DHT22;61320;52.008;4.530;2022-08-25T14:48:52;32.92;45.39
73133;DHT22;61320;52.008;4.530;2022-08-25T14:51:21;32.95;44.77
73133;DHT22;61320;52.008;4.530;2022-08-25T14:53:48;32.89;48.17
73133;DHT22;61320;52.008;4.530;2022-08-25T14:56:14;32.90;47.17
73133;DHT22;61320;52.008;4.530;2022-08-25T14:58:41;32.79;46.91
73133;DHT22;61320;52.008;4.530;2022-08-25T15:01:11;32.62;49.75
73133;DHT22;61320;52.008;4.530;2022-08-25T15:03:39;32.45;46.80
73133;DHT22;61320;52.008;4.530;2022-08-25T15:06:11;32.11;49.39
73133;DHT22;61320;52.008;4.530;2022-08-25T15:08:37;31.96;51.34
73133;DHT22;61320;52.008;4.530;2022-08-25T15:11:21;31.93;52.80
73133;DHT22;61320;52.008;4.530;2022-08-25T15:13:47;31.94;50.05
73133;DHT22;61320;52.008;4.530;2022-08-25T15:16:26;31.87;51.75
73133;DHT22;61320;52.008;4.530;2022-08-25T15:18:51;31.70;53.57
73133;DHT22;61320;52.008;4.530;2022-08-25T15:21:17;31.53;52.96
73133;DHT22;61320;52.008;4.530;2022-08-25T15:23:45;31.46;53.53
73133;DHT22;61320;52.008;4.530;2022-08-25T15:26:12;31.49;55.29
73133;DHT22;61320;52.008;4.530;2022-08-25T15:28:45;31.50;54.30
73133;DHT22;61320;52.008;4.530;2022-08-25T15:31:14;31.39;54.00
73133;DHT22;61320;52.008;4.530;2022-08-25T15:33:40;31.30;54.00
73133;DHT22;61320;52.008;4.530;2022-08-25T15:36:08;31.18;53.25
73133;DHT22;61320;52.008;4.530;2022-08-25T15:38:37;30.91;54.82
73133;DHT22;61320;52.008;4.530;2022-08-25T15:41:07;30.77;54.99
73133;DHT22;61320;52.008;4.530;2022-08-25T15:43:34;30.70;54.99
73133;DHT22;61320;52.008;4.530;2022-08-25T15:46:00;30.51;56.00
73133;DHT22;61320;52.008;4.530;2022-08-25T15:48:32;30.41;55.49
73133;DHT22;61320;52.008;4.530;2022-08-25T15:51:00;30.23;55.57
73133;DHT22;61320;52.008;4.530;2022-08-25T15:53:27;29.95;57.06
73133;DHT22;61320;52.008;4.530;2022-08-25T15:55:54;29.81;59.49
73133;DHT22;61320;52.008;4.530;2022-08-25T15:58:22;29.62;57.63
73133;DHT22;61320;52.008;4.530;2022-08-25T16:00:48;29.32;59.85
73133;DHT22;61320;52.008;4.530;2022-08-25T16:03:13;29.20;59.68
73133;DHT22;61320;52.008;4.530;2022-08-25T16:05:42;29.11;59.24
73133;DHT22;61320;52.008;4.530;2022-08-25T16:08:08;28.93;60.00
73133;DHT22;61320;52.008;4.530;2022-08-25T16:10:38;28.57;60.55
73133;DHT22;61320;52.008;4.530;2022-08-25T16:13:05;28.28;61.95
73133;DHT22;61320;52.008;4.530;2022-08-25T16:15:31;28.02;63.51
73133;DHT22;61320;52.008;4.530;2022-08-25T16:17:58;27.98;63.92
73133;DHT22;61320;52.008;4.530;2022-08-25T16:20:28;27.90;62.94
73133;DHT22;61320;52.008;4.530;2022-08-25T16:22:54;27.74;62.86
73133;DHT22;61320;52.008;4.530;2022-08-25T16:25:20;27.63;65.04
73133;DHT22;61320;52.008;4.530;2022-08-25T16:27:46;27.68;63.83
73133;DHT22;61320;52.008;4.530;2022-08-25T16:30:12;27.64;64.54
73133;DHT22;61320;52.008;4.530;2022-08-25T16:32:39;27.64;63.25
73133;DHT22;61320;52.008;4.530;2022-08-25T16:35:06;27.50;62.97
73133;DHT22;61320;52.008;4.530;2022-08-25T16:37:33;27.35;64.52
73133;DHT22;61320;52.008;4.530;2022-08-25T16:40:00;27.30;65.20
73133;DHT22;61320;52.008;4.530;2022-08-25T16:42:26;27.32;65.55
73133;DHT22;61320;52.008;4.530;2022-08-25T16:44:53;27.39;65.65
73133;DHT22;61320;52.008;4.530;2022-08-25T16:47:18;27.45;64.47
73133;DHT22;61320;52.008;4.530;2022-08-25T16:49:45;27.50;64.44
73133;DHT22;61320;52.008;4.530;2022-08-25T16:52:11;27.51;64.92
73133;DHT22;61320;52.008;4.530;2022-08-25T16:54:55;27.53;65.04
73133;DHT22;61320;52.008;4.530;2022-08-25T16:57:45;27.54;63.95
73133;DHT22;61320;52.008;4.530;2022-08-25T17:00:15;27.46;65.04
73133;DHT22;61320;52.008;4.530;2022-08-25T17:02:41;27.37;65.36
73133;DHT22;61320;52.008;4.530;2022-08-25T17:05:08;27.20;64.80
73133;DHT22;61320;52.008;4.530;2022-08-25T17:07:34;27.08;64.55
73133;DHT22;61320;52.008;4.530;2022-08-25T17:10:01;26.88;64.72
73133;DHT22;61320;52.008;4.530;2022-08-25T17:12:27;26.78;65.38
73133;DHT22;61320;52.008;4.530;2022-08-25T17:14:55;26.68;65.32
73133;DHT22;61320;52.008;4.530;2022-08-25T17:17:21;26.54;65.85
73133;DHT22;61320;52.008;4.530;2022-08-25T17:19:47;26.48;65.95
73133;DHT22;61320;52.008;4.530;2022-08-25T17:22:12;26.43;65.71
73133;DHT22;61320;52.008;4.530;2022-08-25T17:24:44;26.27;67.57
73133;DHT22;61320;52.008;4.530;2022-08-25T17:27:10;26.17;67.77
73133;DHT22;61320;52.008;4.530;2022-08-25T17:29:37;26.16;67.53
73133;DHT22;61320;52.008;4.530;2022-08-25T17:32:03;25.99;68.03
73133;DHT22;61320;52.008;4.530;2022-08-25T17:34:29;25.93;67.97
73133;DHT22;61320;52.008;4.530;2022-08-25T17:36:56;25.83;67.89
73133;DHT22;61320;52.008;4.530;2022-08-25T17:39:22;25.82;68.27